Time;durP1;ratioP1;P1;durP2;ratioP2;P2;SDS_P1;SDS_P2;PMS_P1;PMS_P2;Temp;Humidity;BMP_temperature;BMP_pressure;BME280_temperature;BME280_humidity;BME280_pressure;Samples;Min_cycle;Max_cycle;Signal;HPM_P1;HPM_P2
2022/02/06 00:01:14;;;;;;;77.43;37.65;;;154.40;1689.60;;;;;;5032819;28;20097;-60
2022/02/06 00:03:45;;;;;;;62.45;31.48;;;154.40;1664.00;;;;;;5032521;28;20041;-63
2022/02/06 00:06:17;;;;;;;70.45;31.17;;;154.30;1664.00;;;;;;5032304;28;20085;-60
2022/02/06 00:08:48;;;;;;;71.43;35.35;;;154.20;1638.40;;;;;;5032292;28;20091;-60
2022/02/06 00:11:18;;;;;;;64.45;33.47;;;154.20;1664.00;;;;;;5032377;28;20030;-60
2022/02/06 00:13:49;;;;;;;61.08;32.58;;;154.20;1638.40;;;;;;5032168;28;20083;-59
2022/02/06 00:16:21;;;;;;;67.95;33.60;;;154.20;1638.40;;;;;;5096733;28;20108;-59
2022/02/06 00:18:52;;;;;;;45.17;23.65;;;154.20;1638.40;;;;;;5115143;28;20081;-60
2022/02/06 00:21:21;;;;;;;46.08;21.92;;;154.20;1638.40;;;;;;5114995;28;20020;-60
2022/02/06 00:23:54;;;;;;;43.65;22.65;;;154.10;1638.40;;;;;;5114539;28;20482;-60
2022/02/06 00:26:43;;;;;;;41.67;21.30;;;154.20;1612.80;;;;;;5114703;28;20346;-60
2022/02/06 00:32:13;;;;;;;33.42;17.80;;;153.90;1638.40;;;;;;5031748;28;20051;-60
2022/02/06 00:40:25;;;;;;;28.27;15.45;;;154.00;1612.80;;;;;;5031903;28;20091;-60
2022/02/06 00:42:55;;;;;;;30.58;14.43;;;153.90;1638.40;;;;;;5031748;28;20045;-61
2022/02/06 00:45:26;;;;;;;23.60;12.70;;;154.00;1612.80;;;;;;5032213;28;20376;-61
2022/02/06 00:47:57;;;;;;;26.25;11.57;;;154.00;1638.40;;;;;;5031850;28;20092;-60
2022/02/06 00:50:30;;;;;;;19.77;11.50;;;153.90;1612.80;;;;;;5031328;28;20132;-60
2022/02/06 00:53:05;;;;;;;28.83;16.52;;;154.00;1612.80;;;;;;5031504;28;20041;-61
2022/02/06 00:55:36;;;;;;;25.55;14.88;;;154.00;1612.80;;;;;;5031570;28;20468;-59
2022/02/06 00:58:05;;;;;;;20.25;12.73;;;153.90;1612.80;;;;;;5031546;28;20108;-59
2022/02/06 01:00:36;;;;;;;22.15;13.70;;;153.90;1612.80;;;;;;5030972;28;20036;-60
2022/02/06 01:03:07;;;;;;;26.45;14.43;;;153.90;1612.80;;;;;;5031431;28;20536;-59
2022/02/06 01:05:38;;;;;;;32.75;16.83;;;153.80;1638.40;;;;;;5031596;28;20129;-59
2022/02/06 01:08:08;;;;;;;25.40;14.93;;;153.90;1612.80;;;;;;5037324;28;20047;-59
2022/02/06 01:10:39;;;;;;;24.92;15.02;;;153.90;1612.80;;;;;;5114131;28;20102;-59
2022/02/06 01:13:18;;;;;;;32.15;17.80;;;153.90;1587.20;;;;;;5114150;28;20034;-60
2022/02/06 01:16:10;;;;;;;29.27;16.73;;;153.80;1587.20;;;;;;5114123;28;20373;-60
2022/02/06 01:18:47;;;;;;;28.10;15.95;;;153.80;1612.80;;;;;;5114145;28;20369;-59
2022/02/06 01:24:13;;;;;;;27.38;13.27;;;153.90;1587.20;;;;;;5113819;28;20080;-59
2022/02/06 01:26:50;;;;;;;22.08;12.48;;;153.70;1587.20;;;;;;5114293;28;20042;-60
2022/02/06 01:32:09;;;;;;;27.15;15.25;;;153.60;1612.80;;;;;;5113600;28;20130;-59
2022/02/06 01:37:33;;;;;;;26.63;15.32;;;153.70;1612.80;;;;;;5113918;28;20027;-60
2022/02/06 01:42:42;;;;;;;32.45;17.65;;;153.60;1612.80;;;;;;5114080;28;20063;-60
2022/02/06 02:08:07;;;;;;;32.38;15.00;;;153.70;1561.60;;;;;;5034690;28;20415;-59
2022/02/06 02:11:06;;;;;;;37.35;20.35;;;153.60;1587.20;;;;;;5034509;28;20036;-59
2022/02/06 02:14:00;;;;;;;44.22;22.17;;;153.60;1561.60;;;;;;5034455;28;20565;-59
2022/02/06 02:47:11;;;;;;;44.25;24.02;;;128.90;1561.60;;;;;;5053883;28;20098;-60
2022/02/06 02:49:43;;;;;;;50.72;25.73;;;128.80;1561.60;;;;;;5053801;28;20040;-60
2022/02/06 02:52:23;;;;;;;55.47;29.60;;;128.90;1561.60;;;;;;5053708;28;20025;-60
2022/02/06 02:55:00;;;;;;;49.67;27.45;;;128.80;1587.20;;;;;;5053503;28;20460;-60
2022/02/06 02:57:43;;;;;;;40.78;24.73;;;128.80;1587.20;;;;;;5053579;28;20028;-60
2022/02/06 03:02:59;;;;;;;43.13;22.58;;;128.70;1587.20;;;;;;5053638;28;20352;-59
2022/02/06 03:05:30;;;;;;;48.20;24.50;;;128.70;1587.20;;;;;;5053701;28;20558;-59
2022/02/06 03:08:05;;;;;;;45.63;24.05;;;128.60;1587.20;;;;;;5105035;28;20111;-59
2022/02/06 03:10:39;;;;;;;45.17;23.02;;;128.60;1587.20;;;;;;5116339;28;20110;-59
2022/02/06 03:13:15;;;;;;;40.63;21.58;;;128.60;1587.20;;;;;;5116766;28;20054;-60
2022/02/06 03:15:48;;;;;;;40.67;20.83;;;128.60;1587.20;;;;;;5115808;28;20034;-60
2022/02/06 03:18:22;;;;;;;38.28;17.67;;;128.50;1587.20;;;;;;5115941;28;20031;-60
2022/02/06 03:20:54;;;;;;;34.88;16.80;;;128.50;1587.20;;;;;;5115869;28;20540;-59
2022/02/06 03:23:27;;;;;;;32.03;16.58;;;128.60;1587.20;;;;;;5115796;28;20036;-59
2022/02/06 03:25:59;;;;;;;30.83;15.25;;;128.40;1587.20;;;;;;5115859;28;20028;-58
2022/02/06 03:28:28;;;;;;;31.30;15.80;;;128.50;1587.20;;;;;;5116008;28;20027;-58
2022/02/06 03:30:59;;;;;;;31.42;15.38;;;128.40;1587.20;;;;;;5115726;28;20031;-59
2022/02/06 03:33:33;;;;;;;36.22;15.27;;;128.40;1587.20;;;;;;5115763;28;20062;-58
2022/02/06 03:36:04;;;;;;;28.30;13.93;;;128.40;1587.20;;;;;;5115851;28;20073;-58
2022/02/06 03:38:36;;;;;;;23.80;13.77;;;128.40;1587.20;;;;;;5115544;28;20028;-59
2022/02/06 03:41:11;;;;;;;28.05;14.35;;;128.40;1612.80;;;;;;5115547;28;20027;-59
2022/02/06 03:44:06;;;;;;;29.52;12.95;;;128.30;1587.20;;;;;;5115718;28;20108;-62
2022/02/06 03:46:50;;;;;;;34.88;13.77;;;128.40;1587.20;;;;;;5115679;28;20023;-59
2022/02/06 03:49:29;;;;;;;36.95;14.77;;;128.30;1587.20;;;;;;5115493;28;20024;-61
2022/02/06 03:51:57;;;;;;;29.35;14.30;;;128.30;1612.80;;;;;;5115168;28;20050;-59
2022/02/06 03:54:29;;;;;;;50.17;16.00;;;128.20;1612.80;;;;;;5115450;28;20027;-59
2022/02/06 03:57:00;;;;;;;33.75;14.95;;;128.20;1612.80;;;;;;5115374;28;20107;-59
2022/02/06 03:59:35;;;;;;;32.47;13.98;;;128.30;1612.80;;;;;;5115177;28;20034;-61
2022/02/06 04:02:08;;;;;;;28.02;14.07;;;128.20;1612.80;;;;;;5115332;28;20111;-59
2022/02/06 04:04:38;;;;;;;26.75;13.43;;;128.30;1612.80;;;;;;5115125;28;20032;-59
2022/02/06 04:07:12;;;;;;;25.40;11.52;;;128.30;1587.20;;;;;;5115171;28;20038;-59
2022/02/06 04:09:53;;;;;;;43.42;14.43;;;128.30;1612.80;;;;;;5114990;28;20350;-59
2022/02/06 04:12:26;;;;;;;33.63;13.32;;;128.30;1587.20;;;;;;5115179;28;20385;-60
2022/02/06 04:15:07;;;;;;;26.98;12.20;;;128.30;1587.20;;;;;;5114810;28;20080;-59
2022/02/06 04:20:36;;;;;;;29.08;11.82;;;128.30;1587.20;;;;;;5032693;28;20048;-58
2022/02/06 04:23:08;;;;;;;33.22;11.75;;;128.20;1612.80;;;;;;5032176;28;20083;-58
2022/02/06 04:25:40;;;;;;;35.40;13.60;;;128.30;1587.20;;;;;;5031034;28;20030;-59
2022/02/06 04:28:11;;;;;;;32.78;13.27;;;128.20;1612.80;;;;;;5032143;28;20091;-60
2022/02/06 04:30:42;;;;;;;34.22;14.27;;;128.30;1612.80;;;;;;5032062;28;20025;-60
2022/02/06 04:33:13;;;;;;;26.58;14.23;;;128.30;1612.80;;;;;;5031865;28;20068;-59
2022/02/06 04:35:45;;;;;;;31.48;14.63;;;128.30;1587.20;;;;;;5031956;28;20029;-59
2022/02/06 04:41:30;;;;;;;30.55;13.73;;;128.40;1587.20;;;;;;5031692;28;20088;-59
2022/02/06 04:53:01;;;;;;;78.53;28.65;;;128.20;1612.80;;;;;;5032302;28;20113;-59
2022/02/06 05:28:56;;;;;;;26.83;12.80;;;103.30;1587.20;;;;;;5011615;28;20514;-59
2022/02/06 05:31:54;;;;;;;26.58;11.60;;;103.20;1587.20;;;;;;5011698;28;20468;-59
2022/02/06 05:34:16;;;;;;;28.58;14.60;;;103.30;1587.20;;;;;;5010826;28;20077;-59
2022/02/06 05:36:48;;;;;;;40.83;21.63;;;103.20;1587.20;;;;;;5054194;28;20037;-59
2022/02/06 05:39:19;;;;;;;64.85;29.52;;;103.20;1612.80;;;;;;5077505;28;20055;-58
2022/02/06 05:41:51;;;;;;;69.95;35.72;;;103.20;1612.80;;;;;;5077376;28;20035;-60
2022/02/06 05:44:19;;;;;;;75.45;37.78;;;103.20;1587.20;;;;;;5077161;28;20037;-59
2022/02/06 05:46:51;;;;;;;65.28;33.72;;;103.30;1587.20;;;;;;5077400;28;20105;-60
2022/02/06 05:49:22;;;;;;;48.55;25.27;;;103.30;1587.20;;;;;;5077205;28;20028;-61
2022/02/06 05:51:54;;;;;;;41.47;18.48;;;103.30;1612.80;;;;;;5076911;28;20104;-59
2022/02/06 05:54:25;;;;;;;41.70;16.70;;;103.30;1612.80;;;;;;5077172;28;20051;-59
2022/02/06 05:56:58;;;;;;;27.77;15.05;;;103.30;1587.20;;;;;;5076993;28;20390;-59
2022/02/06 05:59:29;;;;;;;34.42;15.20;;;103.30;1612.80;;;;;;5076963;28;20035;-59
2022/02/06 06:02:01;;;;;;;29.38;13.57;;;103.20;1587.20;;;;;;5076964;28;20020;-61
2022/02/06 06:04:31;;;;;;;28.48;13.95;;;103.20;1612.80;;;;;;5076771;28;20039;-59
2022/02/06 06:07:03;;;;;;;27.45;14.70;;;103.20;1612.80;;;;;;5076814;28;20379;-59
2022/02/06 06:09:34;;;;;;;29.45;13.30;;;103.20;1612.80;;;;;;5076595;28;20378;-59
2022/02/06 06:12:06;;;;;;;27.88;13.52;;;103.20;1612.80;;;;;;5076758;28;20024;-60
2022/02/06 06:14:35;;;;;;;25.65;14.25;;;103.20;1612.80;;;;;;5076565;28;20029;-60
2022/02/06 06:17:07;;;;;;;30.55;14.30;;;103.20;1612.80;;;;;;5076761;28;20025;-60
2022/02/06 06:19:43;;;;;;;26.92;13.93;;;103.20;1612.80;;;;;;5076423;28;20032;-60
2022/02/06 06:22:18;;;;;;;28.02;15.40;;;103.20;1612.80;;;;;;5076715;28;20036;-60
2022/02/06 06:24:58;;;;;;;26.33;15.07;;;103.20;1612.80;;;;;;5076492;28;20067;-60
2022/02/06 06:27:29;;;;;;;37.22;17.95;;;103.20;1612.80;;;;;;5076314;28;20024;-60
2022/02/06 06:29:58;;;;;;;44.17;18.67;;;103.20;1612.80;;;;;;5076268;28;20024;-62
2022/02/06 06:32:29;;;;;;;36.45;18.20;;;103.10;1638.40;;;;;;5102494;28;20054;-59
2022/02/06 06:35:03;;;;;;;33.75;16.60;;;103.10;1638.40;;;;;;5116556;28;20024;-59
2022/02/06 06:37:41;;;;;;;36.75;17.05;;;103.20;1612.80;;;;;;5117012;28;20035;-60
2022/02/06 06:40:13;;;;;;;46.20;19.98;;;103.20;1638.40;;;;;;5116862;28;20051;-59
2022/02/06 06:42:44;;;;;;;46.00;21.98;;;103.20;1612.80;;;;;;5116811;28;20080;-60
2022/02/06 06:45:15;;;;;;;45.85;21.70;;;103.20;1638.40;;;;;;5116771;28;20583;-59
2022/02/06 06:48:00;;;;;;;42.15;19.90;;;103.20;1638.40;;;;;;5116626;28;20107;-61
2022/02/06 06:50:32;;;;;;;36.70;18.33;;;103.30;1638.40;;;;;;5115853;28;20047;-59
2022/02/06 06:53:06;;;;;;;43.00;17.85;;;103.20;1638.40;;;;;;5116848;28;20027;-58
2022/02/06 06:55:44;;;;;;;37.17;17.55;;;103.30;1638.40;;;;;;5116239;28;20019;-58
2022/02/06 06:58:24;;;;;;;39.83;18.50;;;103.30;1638.40;;;;;;5116701;28;20118;-59
2022/02/06 07:01:20;;;;;;;42.75;21.08;;;128.00;1664.00;;;;;;5115948;28;20031;-59
2022/02/06 07:03:51;;;;;;;42.65;20.90;;;128.00;1664.00;;;;;;5116303;28;20036;-59
2022/02/06 07:06:21;;;;;;;43.03;20.50;;;128.20;1638.40;;;;;;5116587;28;20026;-60
2022/02/06 07:08:47;;;;;;;40.05;21.63;;;128.30;1638.40;;;;;;5116034;28;20020;-61
2022/02/06 07:11:14;;;;;;;46.00;24.30;;;128.40;1638.40;;;;;;5116053;28;20022;-61
2022/02/06 07:13:41;;;;;;;52.65;27.63;;;128.40;1638.40;;;;;;5116122;28;20023;-60
2022/02/06 07:16:08;;;;;;;57.67;32.08;;;128.50;1638.40;;;;;;5115933;28;20517;-59
2022/02/06 07:18:39;;;;;;;68.88;36.40;;;128.50;1612.80;;;;;;5116131;28;20420;-60
2022/02/06 07:21:10;;;;;;;66.95;33.28;;;128.50;1638.40;;;;;;5116057;28;20481;-60
2022/02/06 07:23:42;;;;;;;53.38;27.77;;;128.70;1638.40;;;;;;5115947;28;20023;-60
2022/02/06 07:26:17;;;;;;;42.85;21.45;;;128.80;1612.80;;;;;;5115772;28;20035;-62
2022/02/06 07:28:49;;;;;;;45.58;21.70;;;128.90;1587.20;;;;;;5115742;28;20057;-61
2022/02/06 07:31:22;;;;;;;50.20;19.90;;;153.60;1587.20;;;;;;5115683;28;20063;-59
2022/02/06 07:33:54;;;;;;;50.40;21.05;;;153.80;1971.20;;;;;;5115852;28;20028;-59
2022/02/06 07:36:25;;;;;;;57.15;25.55;;;153.90;1664.00;;;;;;5115903;28;20034;-59
2022/02/06 07:38:56;;;;;;;71.55;33.85;;;154.00;1612.80;;;;;;5115596;28;20154;-59
2022/02/06 07:41:25;;;;;;;90.47;44.70;;;154.00;1587.20;;;;;;5115808;28;20024;-59
2022/02/06 07:43:56;;;;;;;72.40;37.88;;;154.00;1587.20;;;;;;5115351;28;20032;-59
2022/02/06 07:46:46;;;;;;;58.50;32.97;;;154.10;1587.20;;;;;;5115524;28;20088;-59
2022/02/06 07:49:18;;;;;;;52.38;26.08;;;154.10;1587.20;;;;;;5115636;28;20020;-59
2022/02/06 07:51:49;;;;;;;48.33;24.10;;;154.20;1587.20;;;;;;5115583;28;20050;-59
2022/02/06 07:54:21;;;;;;;47.20;23.13;;;154.20;1587.20;;;;;;5115498;28;20019;-59
2022/02/06 07:56:50;;;;;;;42.70;21.45;;;154.30;1587.20;;;;;;5115465;28;20019;-59
2022/02/06 07:59:21;;;;;;;39.50;18.42;;;154.30;1587.20;;;;;;5115395;28;20034;-59
2022/02/06 08:01:53;;;;;;;33.95;18.65;;;154.40;1587.20;;;;;;5115068;28;20119;-59
2022/02/06 08:04:24;;;;;;;39.83;19.70;;;154.50;1612.80;;;;;;5115088;28;20065;-59
2022/02/06 08:06:53;;;;;;;32.05;17.98;;;154.50;1612.80;;;;;;5115778;28;20023;-59
2022/02/06 08:09:41;;;;;;;34.00;19.48;;;179.20;1612.80;;;;;;5115028;28;20100;-59
2022/02/06 08:12:11;;;;;;;34.38;17.38;;;179.20;1612.80;;;;;;5115175;28;20019;-59
2022/02/06 08:15:00;;;;;;;29.15;18.52;;;179.20;1638.40;;;;;;5115104;28;20028;-59
2022/02/06 08:17:41;;;;;;;36.45;17.27;;;179.40;1612.80;;;;;;5114887;28;20055;-59
2022/02/06 08:20:15;;;;;;;26.30;14.93;;;179.50;1612.80;;;;;;5114764;28;20026;-59
2022/02/06 08:22:48;;;;;;;32.28;16.35;;;179.60;1638.40;;;;;;5114495;28;20028;-59
2022/02/06 08:25:22;;;;;;;29.85;13.73;;;179.70;1612.80;;;;;;5114627;28;20046;-60
2022/02/06 08:27:54;;;;;;;25.87;12.70;;;179.80;1612.80;;;;;;5114767;28;20020;-59
2022/02/06 08:30:26;;;;;;;22.02;11.00;;;179.90;1587.20;;;;;;5115285;28;20356;-59
2022/02/06 08:32:59;;;;;;;21.75;12.15;;;180.10;1587.20;;;;;;5114616;28;20055;-59
2022/02/06 08:35:28;;;;;;;24.88;12.63;;;204.80;1587.20;;;;;;5114678;28;20024;-59
2022/02/06 08:38:00;;;;;;;25.17;13.60;;;204.90;1561.60;;;;;;5114702;28;20027;-59
2022/02/06 08:40:31;;;;;;;21.05;11.00;;;205.00;1587.20;;;;;;5114601;28;20051;-59
2022/02/06 08:43:00;;;;;;;22.30;11.25;;;205.00;1561.60;;;;;;5114647;28;20038;-59
2022/02/06 08:45:33;;;;;;;23.15;11.02;;;205.20;1561.60;;;;;;5114609;28;20465;-59
2022/02/06 08:48:05;;;;;;;20.73;10.88;;;205.30;1561.60;;;;;;5114502;28;20034;-59
2022/02/06 08:50:36;;;;;;;29.60;11.07;;;205.40;1561.60;;;;;;5114646;28;20399;-58
2022/02/06 08:53:08;;;;;;;28.40;11.75;;;205.50;1561.60;;;;;;5114325;28;20075;-59
2022/02/06 08:55:39;;;;;;;25.67;10.02;;;205.60;1536.00;;;;;;5114259;28;20020;-59
2022/02/06 08:58:11;;;;;;;25.60;11.25;;;230.40;1536.00;;;;;;5114341;28;20027;-59
2022/02/06 09:00:42;;;;;;;17.88;11.18;;;230.50;1536.00;;;;;;5114289;28;20054;-59
2022/02/06 09:03:12;;;;;;;24.70;12.80;;;230.60;1510.40;;;;;;5114364;28;20130;-59
2022/02/06 09:05:44;;;;;;;25.50;13.95;;;230.70;1510.40;;;;;;5114256;28;20024;-59
2022/02/06 09:08:16;;;;;;;25.13;15.25;;;230.80;1510.40;;;;;;5114215;28;20413;-59
2022/02/06 09:10:48;;;;;;;28.08;16.92;;;230.90;1484.80;;;;;;5114328;28;20020;-59
2022/02/06 09:13:19;;;;;;;28.55;16.13;;;231.10;1612.80;;;;;;5113583;28;20377;-59
2022/02/06 09:15:50;;;;;;;32.30;16.33;;;231.30;1484.80;;;;;;5114308;28;20107;-59
2022/02/06 09:18:22;;;;;;;29.15;15.85;;;231.30;1433.60;;;;;;5114048;28;20027;-59
2022/02/06 09:20:53;;;;;;;34.90;15.85;;;256.00;1433.60;;;;;;5114179;28;20024;-59
2022/02/06 09:23:27;;;;;;;21.38;13.85;;;256.10;1433.60;;;;;;5113950;28;20040;-59
2022/02/06 09:25:59;;;;;;;25.13;12.77;;;256.10;1433.60;;;;;;5113685;28;20028;-59
2022/02/06 09:28:30;;;;;;;25.13;13.48;;;256.20;1433.60;;;;;;5113906;28;20063;-59
2022/02/06 09:31:04;;;;;;;25.67;13.55;;;256.30;1408.00;;;;;;5113798;28;20019;-59
2022/02/06 09:36:07;;;;;;;22.50;12.48;;;256.50;1382.40;;;;;;5113840;28;20122;-58
2022/02/06 09:38:36;;;;;;;27.02;13.57;;;256.60;1382.40;;;;;;5114131;28;20102;-59
2022/02/06 09:41:09;;;;;;;55.13;14.23;;;256.80;1382.40;;;;;;5113741;28;20057;-59
2022/02/06 09:43:43;;;;;;;52.65;13.70;;;256.90;1408.00;;;;;;5113849;28;20042;-59
2022/02/06 09:46:20;;;;;;;23.63;11.07;;;281.60;1356.80;;;;;;5113869;28;20020;-59
2022/02/06 09:48:52;;;;;;;28.42;12.55;;;281.70;1356.80;;;;;;5113859;28;20024;-59
2022/02/06 09:51:26;;;;;;;17.42;11.05;;;281.80;1356.80;;;;;;5113953;28;20047;-59
2022/02/06 09:53:59;;;;;;;18.27;9.32;;;281.90;1331.20;;;;;;5113603;28;20077;-59
2022/02/06 09:56:33;;;;;;;21.77;10.60;;;282.00;1280.00;;;;;;5113679;28;20062;-59
2022/02/06 09:59:17;;;;;;;19.95;9.85;;;282.10;1305.60;;;;;;5113677;28;20122;-59
2022/02/06 10:01:56;;;;;;;14.10;8.00;;;282.10;1254.40;;;;;;5114353;28;20031;-59
2022/02/06 10:04:31;;;;;;;18.00;9.35;;;282.20;1254.40;;;;;;5113610;28;20031;-59
2022/02/06 10:07:06;;;;;;;21.60;9.00;;;282.30;1228.80;;;;;;5113650;28;20023;-59
2022/02/06 10:09:55;;;;;;;14.13;7.00;;;282.30;1177.60;;;;;;5113240;28;20490;-59
2022/02/06 10:12:31;;;;;;;13.35;7.65;;;282.40;1203.20;;;;;;5113610;28;20047;-59
2022/02/06 10:15:03;;;;;;;15.27;8.43;;;282.50;1177.60;;;;;;5113619;28;20150;-59
2022/02/06 10:17:36;;;;;;;15.27;8.30;;;282.50;1177.60;;;;;;5113859;28;20037;-59
2022/02/06 10:20:40;;;;;;;19.50;11.88;;;307.20;1177.60;;;;;;5113476;28;20016;-59
2022/02/06 10:23:24;;;;;;;19.17;12.10;;;307.30;1177.60;;;;;;4992189;28;20521;-60
2022/02/06 10:26:06;;;;;;;19.75;11.02;;;307.30;1152.00;;;;;;4994979;28;20029;-59
2022/02/06 10:31:10;;;;;;;17.20;8.65;;;307.40;1152.00;;;;;;4995030;28;20072;-59
2022/02/06 10:33:55;;;;;;;13.77;8.10;;;307.40;1126.40;;;;;;4994908;28;20039;-59
2022/02/06 10:36:34;;;;;;;15.27;8.68;;;307.50;1126.40;;;;;;4994844;28;20065;-59
2022/02/06 10:39:09;;;;;;;16.20;8.65;;;307.60;1126.40;;;;;;4994838;28;20030;-59
2022/02/06 10:41:53;;;;;;;15.68;8.52;;;307.60;1100.80;;;;;;4994904;28;20038;-59
2022/02/06 10:44:31;;;;;;;27.20;14.32;;;307.70;1049.60;;;;;;4994757;28;20030;-59
2022/02/06 10:47:02;;;;;;;19.70;10.75;;;307.70;1075.20;;;;;;4994753;28;20038;-59
2022/02/06 10:49:34;;;;;;;22.48;9.90;;;307.80;1075.20;;;;;;4994743;28;20475;-59
2022/02/06 10:52:06;;;;;;;17.25;9.38;;;307.90;1075.20;;;;;;4994719;28;20026;-59
2022/02/06 10:54:39;;;;;;;22.02;10.55;;;307.90;1049.60;;;;;;4994571;28;20038;-59
2022/02/06 10:57:18;;;;;;;22.13;10.02;;;307.90;1049.60;;;;;;4994460;28;20468;-59
2022/02/06 10:59:53;;;;;;;28.75;13.85;;;307.90;1049.60;;;;;;5050771;28;20040;-59
2022/02/06 11:02:59;;;;;;;29.33;17.13;;;308.00;1049.60;;;;;;5116726;28;20033;-59
2022/02/06 11:05:40;;;;;;;38.42;20.88;;;308.10;1049.60;;;;;;5116390;28;20039;-59
2022/02/06 11:08:22;;;;;;;37.58;20.67;;;308.10;1024.00;;;;;;5116420;28;20050;-59
2022/02/06 11:11:09;;;;;;;32.90;16.77;;;308.10;1024.00;;;;;;5115748;28;20023;-60
2022/02/06 11:13:40;;;;;;;33.28;16.98;;;308.10;998.40;;;;;;5116296;28;20026;-60
2022/02/06 11:16:21;;;;;;;29.10;17.13;;;332.80;1049.60;;;;;;5116358;28;20512;-59
2022/02/06 11:18:59;;;;;;;31.17;16.85;;;332.80;1049.60;;;;;;5115943;28;20055;-60
2022/02/06 11:21:28;;;;;;;27.48;14.95;;;332.90;1049.60;;;;;;5116185;28;20039;-59
2022/02/06 11:24:00;;;;;;;38.95;18.98;;;333.00;1049.60;;;;;;5115972;28;20462;-59
2022/02/06 11:26:31;;;;;;;44.22;20.30;;;333.00;1024.00;;;;;;5115968;28;20052;-58
2022/02/06 11:29:05;;;;;;;67.32;31.27;;;333.10;1049.60;;;;;;5115862;28;20474;-59
2022/02/06 11:31:39;;;;;;;42.25;22.92;;;333.20;1024.00;;;;;;5115810;28;20047;-58
2022/02/06 11:34:09;;;;;;;;;;;333.20;998.40;;;;;;5116419;28;20035;-60
2022/02/06 11:45:40;;;;;;;32.63;19.65;;;333.30;998.40;;;;;;5115645;28;20401;-58
2022/02/06 11:48:17;;;;;;;19.35;11.77;;;333.40;972.80;;;;;;5115574;28;20065;-59
2022/02/06 11:50:50;;;;;;;17.10;8.50;;;333.40;998.40;;;;;;5115464;28;20055;-59
2022/02/06 11:53:30;;;;;;;17.37;8.03;;;333.40;998.40;;;;;;5115711;28;20028;-58
2022/02/06 11:56:01;;;;;;;9.82;5.97;;;333.40;998.40;;;;;;5115566;28;20260;-59
2022/02/06 11:58:40;;;;;;;20.13;10.43;;;333.50;972.80;;;;;;5115517;28;20031;-58
2022/02/06 12:01:11;;;;;;;17.42;8.43;;;333.50;998.40;;;;;;5115178;28;20538;-59
2022/02/06 12:04:04;;;;;;;13.80;7.90;;;333.50;998.40;;;;;;5115104;28;20035;-59
2022/02/06 12:06:50;;;;;;;14.45;7.03;;;333.60;972.80;;;;;;5115225;28;20118;-59
2022/02/06 12:09:31;;;;;;;10.35;5.63;;;333.60;972.80;;;;;;5115091;28;20023;-58
2022/02/06 12:12:09;;;;;;;14.00;5.85;;;333.60;998.40;;;;;;5115316;28;20031;-59
2022/02/06 12:14:53;;;;;;;12.10;4.93;;;333.60;998.40;;;;;;5115270;28;20047;-59
2022/02/06 12:17:55;;;;;;;14.05;5.68;;;333.70;998.40;;;;;;5096365;28;20495;-59
2022/02/06 12:20:17;;;;;;;10.27;5.03;;;333.70;972.80;;;;;;5114310;28;20039;-59
2022/02/06 12:22:50;;;;;;;8.25;4.78;;;333.70;972.80;;;;;;5115119;28;20129;-59
2022/02/06 12:25:38;;;;;;;9.52;5.18;;;333.70;947.20;;;;;;5114742;28;20110;-59
2022/02/06 12:28:22;;;;;;;13.00;5.45;;;333.70;947.20;;;;;;5114913;28;20472;-59
2022/02/06 12:31:14;;;;;;;13.00;5.32;;;333.70;947.20;;;;;;5115015;28;20453;-59
2022/02/06 12:33:55;;;;;;;10.57;6.15;;;333.70;972.80;;;;;;5114850;28;20078;-59
2022/02/06 12:39:26;;;;;;;21.45;4.63;;;333.70;972.80;;;;;;5114512;28;20397;-59
2022/02/06 12:41:59;;;;;;;11.18;5.78;;;333.70;972.80;;;;;;5114646;28;20019;-59
2022/02/06 12:44:32;;;;;;;11.90;5.40;;;333.70;972.80;;;;;;5114507;28;20161;-59
2022/02/06 12:47:11;;;;;;;8.73;5.53;;;358.40;947.20;;;;;;5113752;28;20043;-59
2022/02/06 12:49:41;;;;;;;12.00;6.47;;;358.40;972.80;;;;;;5114500;28;20035;-59
2022/02/06 12:52:13;;;;;;;15.15;5.45;;;358.40;972.80;;;;;;5114946;28;20093;-59
2022/02/06 12:54:47;;;;;;;14.55;5.72;;;358.40;972.80;;;;;;5114368;28;20054;-58
2022/02/06 12:57:20;;;;;;;13.13;6.25;;;358.40;947.20;;;;;;5114382;28;20053;-59
2022/02/06 12:59:52;;;;;;;8.13;5.00;;;358.40;947.20;;;;;;5114421;28;20058;-58
2022/02/06 13:02:34;;;;;;;12.10;5.95;;;358.50;947.20;;;;;;5114232;28;20030;-59
2022/02/06 13:05:10;;;;;;;14.25;6.07;;;358.40;921.60;;;;;;5114249;28;20177;-59
2022/02/06 13:07:46;;;;;;;9.27;4.97;;;358.50;947.20;;;;;;5114089;28;20115;-59
2022/02/06 13:10:17;;;;;;;11.13;5.53;;;358.50;921.60;;;;;;5113739;28;20423;-59
2022/02/06 13:12:54;;;;;;;6.80;3.50;;;358.50;921.60;;;;;;5114025;28;20030;-59
2022/02/06 13:18:33;;;;;;;12.98;3.20;;;358.50;921.60;;;;;;5114311;28;20072;-59
2022/02/06 13:21:16;;;;;;;7.22;3.85;;;358.50;921.60;;;;;;5113967;28;20028;-58
2022/02/06 13:26:53;;;;;;;15.68;6.63;;;358.60;921.60;;;;;;5114224;28;20027;-58
2022/02/06 13:29:50;;;;;;;12.52;6.40;;;358.60;921.60;;;;;;5114020;28;20031;-59
2022/02/06 13:32:58;;;;;;;12.15;4.65;;;358.60;921.60;;;;;;5113804;28;20040;-58
2022/02/06 13:35:29;;;;;;;6.88;3.47;;;358.60;921.60;;;;;;5113525;28;20126;-59
2022/02/06 13:38:11;;;;;;;7.65;3.72;;;358.60;896.00;;;;;;5113710;28;20127;-59
2022/02/06 13:40:51;;;;;;;7.68;3.92;;;358.60;896.00;;;;;;5113640;28;20508;-58
2022/02/06 13:43:26;;;;;;;7.55;3.80;;;358.60;921.60;;;;;;5113592;28;20527;-59
2022/02/06 13:46:01;;;;;;;7.35;3.88;;;358.50;921.60;;;;;;5113940;28;20038;-58
2022/02/06 13:48:32;;;;;;;12.95;4.15;;;358.50;921.60;;;;;;5113898;28;20496;-58
2022/02/06 13:51:05;;;;;;;7.05;3.88;;;358.50;921.60;;;;;;5113777;28;20107;-58
2022/02/06 13:53:36;;;;;;;7.63;3.70;;;358.50;921.60;;;;;;5114179;28;20019;-59
2022/02/06 13:56:16;;;;;;;12.07;4.07;;;358.50;921.60;;;;;;5113583;28;20366;-58
2022/02/06 13:59:06;;;;;;;6.22;3.35;;;358.50;947.20;;;;;;5115496;28;20107;-58
2022/02/06 14:01:47;;;;;;;10.70;3.85;;;358.50;921.60;;;;;;5117547;28;20496;-58
2022/02/06 14:04:38;;;;;;;8.65;4.30;;;358.50;921.60;;;;;;5117668;28;20058;-59
2022/02/06 14:07:22;;;;;;;13.15;5.38;;;358.50;947.20;;;;;;5117363;28;20039;-59
2022/02/06 14:10:13;;;;;;;8.82;5.10;;;358.50;947.20;;;;;;5117581;28;20036;-58
2022/02/06 14:12:58;;;;;;;11.07;5.65;;;358.40;947.20;;;;;;5117413;28;20474;-58
2022/02/06 14:15:31;;;;;;;12.60;5.20;;;358.40;947.20;;;;;;5117398;28;20037;-58
2022/02/06 14:18:09;;;;;;;10.65;5.18;;;358.40;972.80;;;;;;5117470;28;20027;-59
2022/02/06 14:20:42;;;;;;;10.95;4.85;;;358.40;972.80;;;;;;5117265;28;20039;-59
2022/02/06 14:23:18;;;;;;;9.55;5.15;;;358.40;972.80;;;;;;5117295;28;20052;-59
2022/02/06 14:25:50;;;;;;;8.57;5.03;;;358.40;972.80;;;;;;5117087;28;20465;-58
2022/02/06 14:28:26;;;;;;;12.85;5.28;;;358.40;972.80;;;;;;5117754;28;20024;-58
2022/02/06 14:30:57;;;;;;;12.50;5.28;;;358.40;972.80;;;;;;5116710;28;20084;-59
2022/02/06 14:33:30;;;;;;;9.13;5.55;;;358.40;972.80;;;;;;5116794;28;20057;-59
2022/02/06 14:36:15;;;;;;;12.68;6.03;;;358.40;972.80;;;;;;5117197;28;20028;-58
2022/02/06 14:39:00;;;;;;;10.90;5.75;;;358.40;998.40;;;;;;5116743;28;20024;-58
2022/02/06 14:41:46;;;;;;;;;;;358.40;998.40;;;;;;5117387;28;20487;-58
2022/02/06 14:44:26;;;;;;;9.10;5.35;;;358.40;998.40;;;;;;5117081;28;19912;-58
2022/02/06 14:46:58;;;;;;;16.80;6.13;;;333.70;998.40;;;;;;5116889;28;20046;-58
2022/02/06 14:49:30;;;;;;;17.35;9.15;;;333.70;998.40;;;;;;5116933;28;20081;-58
2022/02/06 14:52:02;;;;;;;13.90;7.93;;;333.70;1024.00;;;;;;5116965;28;20015;-58
2022/02/06 14:54:37;;;;;;;17.08;9.50;;;333.70;1024.00;;;;;;5116746;28;20084;-58
2022/02/06 14:57:10;;;;;;;14.43;9.32;;;333.60;1024.00;;;;;;5116595;28;20023;-58
2022/02/06 14:59:42;;;;;;;18.50;8.77;;;333.60;1024.00;;;;;;5116551;28;20107;-58
2022/02/06 15:02:13;;;;;;;12.52;7.30;;;333.60;1024.00;;;;;;5116603;28;20020;-58
2022/02/06 15:04:45;;;;;;;10.30;6.80;;;333.60;1049.60;;;;;;5116390;28;20252;-59
2022/02/06 15:07:15;;;;;;;14.23;7.22;;;333.50;1049.60;;;;;;5116498;28;20050;-58
2022/02/06 15:09:47;;;;;;;11.52;7.53;;;333.50;1049.60;;;;;;5115345;28;20023;-58
2022/02/06 15:12:18;;;;;;;14.50;6.80;;;333.50;1049.60;;;;;;5116372;28;20034;-58